Time;durP1;ratioP1;P1;durP2;ratioP2;P2;SDS_P1;SDS_P2;PMS_P1;PMS_P2;Temp;Humidity;BMP_temperature;BMP_pressure;BME280_temperature;BME280_humidity;BME280_pressure;Samples;Min_cycle;Max_cycle;Signal;HPM_P1;HPM_P2
2024/02/04 00:02:03;;;;;;;13.73;6.05;;;;;;;0.42;67.19;96910.34;4817798;29;20042;-68
2024/02/04 00:04:32;;;;;;;12.85;6.28;;;;;;;0.27;67.20;96884.13;4774825;29;20054;-68
2024/02/04 00:06:58;;;;;;;12.32;6.55;;;;;;;0.27;67.24;96873.91;4790090;29;20103;-70
2024/02/04 00:09:27;;;;;;;14.43;6.95;;;;;;;0.30;67.69;96875.56;4782792;29;20046;-69
2024/02/04 00:11:53;;;;;;;15.18;6.32;;;;;;;0.50;67.60;96903.41;4772133;29;20289;-69
2024/02/04 00:14:19;;;;;;;11.30;5.70;;;;;;;0.43;67.71;96877.09;4786535;29;20725;-68
2024/02/04 00:16:45;;;;;;;10.05;5.63;;;;;;;0.42;67.52;96871.97;4786928;29;20137;-68
2024/02/04 00:19:11;;;;;;;10.20;5.65;;;;;;;0.41;67.68;96865.16;4800579;29;20478;-68
2024/02/04 00:21:37;;;;;;;13.50;5.47;;;;;;;0.27;67.23;96840.66;4765167;29;20076;-70
2024/02/04 00:24:03;;;;;;;14.65;5.80;;;;;;;0.31;68.06;96863.63;4772107;29;20054;-69
2024/02/04 00:26:29;;;;;;;11.43;5.45;;;;;;;0.42;68.34;96861.72;4800299;29;20062;-70
2024/02/04 00:28:55;;;;;;;13.32;5.97;;;;;;;0.37;67.87;96841.34;4773097;29;20053;-69
2024/02/04 00:31:21;;;;;;;12.75;5.53;;;;;;;0.38;68.00;96831.94;4785822;29;20055;-70
2024/02/04 00:33:48;;;;;;;10.23;5.38;;;;;;;0.48;67.73;96838.63;4772355;29;20053;-68
2024/02/04 00:36:14;;;;;;;11.75;4.78;;;;;;;0.33;68.10;96805.63;4798707;29;20103;-68
2024/02/04 00:38:40;;;;;;;10.05;5.57;;;;;;;0.42;67.94;96815.69;4784646;29;20419;-68
2024/02/04 00:41:06;;;;;;;10.70;5.18;;;;;;;0.52;67.99;96827.47;4798664;29;20050;-68
2024/02/04 00:43:32;;;;;;;10.23;5.40;;;;;;;0.41;68.36;96802.06;4785522;29;20057;-68
2024/02/04 00:46:00;;;;;;;8.98;4.80;;;;;;;0.51;67.95;96820.66;4768810;29;20043;-68
2024/02/04 00:48:26;;;;;;;7.70;4.22;;;;;;;0.52;68.05;96811.25;4799706;29;20142;-68
2024/02/04 00:50:52;;;;;;;10.27;5.03;;;;;;;0.32;68.06;96778.34;4797669;29;20479;-69
2024/02/04 00:53:17;;;;;;;10.55;4.93;;;;;;;0.43;68.22;96804.59;4800001;29;20046;-67
2024/02/04 00:55:43;;;;;;;7.65;4.50;;;;;;;0.50;68.95;96803.63;4798968;29;20042;-68
2024/02/04 00:58:09;;;;;;;11.68;4.88;;;;;;;0.50;68.82;96795.94;4797109;29;20047;-68
2024/02/04 01:00:35;;;;;;;10.90;4.95;;;;;;;0.53;68.92;96800.16;4797068;29;20112;-67
2024/02/04 01:03:01;;;;;;;9.75;5.05;;;;;;;0.51;68.67;96791.66;4782051;29;20038;-67
2024/02/04 01:05:28;;;;;;;10.30;5.07;;;;;;;0.44;68.54;96770.44;4770257;29;20054;-68
2024/02/04 01:07:54;;;;;;;10.73;4.65;;;;;;;0.44;69.12;96755.09;4771366;29;20051;-68
2024/02/04 01:10:20;;;;;;;11.20;5.35;;;;;;;0.57;68.84;96774.47;4770812;29;20049;-67
2024/02/04 01:12:46;;;;;;;8.20;4.18;;;;;;;0.63;69.19;96771.00;4785378;29;20133;-68
2024/02/04 01:15:12;;;;;;;9.25;5.32;;;;;;;0.55;69.43;96752.34;4797599;29;20046;-68
2024/02/04 01:17:38;;;;;;;9.60;4.80;;;;;;;0.59;68.94;96764.22;4796926;29;20067;-69
2024/02/04 01:20:05;;;;;;;9.15;4.57;;;;;;;0.56;69.59;96749.75;4786009;29;20474;-68
2024/02/04 01:22:31;;;;;;;7.45;4.43;;;;;;;0.71;69.27;96760.63;4784787;29;20147;-67
2024/02/04 01:24:57;;;;;;;8.52;4.28;;;;;;;0.74;69.52;96756.28;4797942;29;20056;-68
2024/02/04 01:27:23;;;;;;;7.97;4.50;;;;;;;0.78;69.22;96754.50;4768856;29;20205;-68
2024/02/04 01:29:50;;;;;;;8.23;4.20;;;;;;;0.80;69.82;96757.88;4784861;29;21373;-68
2024/02/04 01:32:16;;;;;;;6.78;4.28;;;;;;;0.74;69.37;96733.22;4784469;29;20055;-68
2024/02/04 01:34:42;;;;;;;10.02;4.97;;;;;;;0.68;69.49;96717.16;4754800;29;20058;-67
2024/02/04 01:37:08;;;;;;;7.75;3.72;;;;;;;0.79;69.90;96722.91;4785342;29;20104;-66
2024/02/04 01:39:34;;;;;;;6.55;3.90;;;;;;;0.85;70.12;96710.00;4785045;29;20050;-68
2024/02/04 01:42:01;;;;;;;6.55;4.18;;;;;;;0.99;69.49;96716.56;4782993;29;20062;-68
2024/02/04 01:44:27;;;;;;;4.75;3.38;;;;;;;0.80;69.89;96681.06;4762147;29;20047;-69
2024/02/04 01:46:54;;;;;;;9.05;4.45;;;;;;;1.02;69.72;96719.03;4784260;29;20143;-69
2024/02/04 01:49:20;;;;;;;7.78;4.25;;;;;;;0.92;69.78;96691.94;4784350;29;20050;-69
2024/02/04 01:51:46;;;;;;;6.88;3.72;;;;;;;0.84;69.87;96692.94;4756683;29;20047;-70
2024/02/04 01:54:14;;;;;;;7.97;3.67;;;;;;;0.79;69.64;96676.81;4796147;29;20092;-69
2024/02/04 01:56:40;;;;;;;7.80;4.55;;;;;;;0.98;70.02;96704.63;4784443;29;20043;-69
2024/02/04 01:59:07;;;;;;;8.77;4.03;;;;;;;0.99;69.89;96701.22;4781278;29;20043;-68
2024/02/04 02:01:34;;;;;;;7.25;3.92;;;;;;;0.88;70.08;96680.94;4780210;29;20126;-66
2024/02/04 02:04:02;;;;;;;8.07;3.97;;;;;;;0.92;69.81;96682.53;4784344;29;20047;-65
2024/02/04 02:06:28;;;;;;;6.30;3.60;;;;;;;0.90;70.01;96677.47;4783648;29;20043;-66
2024/02/04 02:08:58;;;;;;;6.53;3.47;;;;;;;0.97;70.52;96682.47;4770041;29;20058;-65
2024/02/04 02:11:45;;;;;;;6.53;3.60;;;;;;;0.80;70.68;96660.59;4780652;29;20046;-65
2024/02/04 02:14:19;;;;;;;9.50;4.15;;;;;;;0.92;70.28;96663.78;4780553;29;20046;-67
2024/02/04 02:16:47;;;;;;;6.53;3.72;;;;;;;0.74;70.12;96630.84;4781248;29;20469;-67
2024/02/04 02:19:41;;;;;;;6.10;3.58;;;;;;;0.98;70.14;96674.75;4769050;29;20541;-67
2024/02/04 02:22:31;;;;;;;6.88;3.65;;;;;;;1.00;70.89;96661.91;4784610;29;20047;-66
2024/02/04 02:24:59;;;;;;;6.20;3.35;;;;;;;0.92;70.89;96659.50;4768716;29;20746;-67
2024/02/04 02:27:26;;;;;;;7.97;3.75;;;;;;;0.84;71.09;96638.34;4769096;29;20051;-66
2024/02/04 02:29:52;;;;;;;5.63;3.15;;;;;;;1.04;70.46;96650.72;4784530;29;20050;-66
2024/02/04 02:32:20;;;;;;;6.22;3.53;;;;;;;0.98;70.85;96638.91;4783295;29;20054;-67
2024/02/04 02:34:46;;;;;;;8.30;4.13;;;;;;;1.05;70.81;96647.28;4769782;29;20073;-68
2024/02/04 02:37:29;;;;;;;7.22;3.40;;;;;;;0.99;70.66;96632.91;4765506;29;20140;-66
2024/02/04 02:40:02;;;;;;;5.40;3.13;;;;;;;1.09;71.17;96648.91;4784353;29;20095;-67
2024/02/04 02:42:31;;;;;;;7.28;3.53;;;;;;;1.09;71.30;96633.53;4770625;29;20477;-66
2024/02/04 02:44:57;;;;;;;6.18;3.10;;;;;;;1.04;71.01;96617.44;4785327;29;20046;-68
2024/02/04 02:47:26;;;;;;;5.22;3.17;;;;;;;0.99;71.13;96614.16;4798506;29;20106;-68
2024/02/04 02:49:55;;;;;;;4.75;2.85;;;;;;;1.05;71.14;96622.53;4769637;29;20051;-68
2024/02/04 02:52:21;;;;;;;5.13;2.63;;;;;;;1.04;71.61;96609.75;4779348;29;20040;-68
2024/02/04 02:54:48;;;;;;;4.90;2.70;;;;;;;1.11;71.57;96613.88;4783514;29;20111;-68
2024/02/04 02:57:14;;;;;;;3.70;2.42;;;;;;;0.91;71.13;96578.44;4780994;29;20095;-67
2024/02/04 02:59:40;;;;;;;5.97;2.38;;;;;;;1.19;71.63;96609.44;4790658;29;20558;-67
2024/02/04 03:02:06;;;;;;;4.78;2.70;;;;;;;1.24;71.59;96611.00;4797031;29;20038;-69
2024/02/04 03:04:31;;;;;;;4.03;2.47;;;;;;;1.12;71.67;96589.06;4765583;29;20072;-69
2024/02/04 03:06:57;;;;;;;4.93;2.45;;;;;;;1.20;71.60;96587.19;4784012;29;20134;-70
2024/02/04 03:09:23;;;;;;;6.28;2.53;;;;;;;1.29;71.52;96606.63;4769396;29;20348;-68
2024/02/04 03:11:50;;;;;;;5.30;2.10;;;;;;;1.29;71.79;96609.19;4802804;29;20058;-69
2024/02/04 03:14:16;;;;;;;3.72;2.10;;;;;;;1.24;71.72;96599.06;4787618;29;20074;-68
2024/02/04 03:16:46;;;;;;;3.50;1.98;;;;;;;1.20;71.99;96584.63;4784577;29;20085;-67
2024/02/04 03:19:15;;;;;;;4.15;1.98;;;;;;;1.22;72.20;96587.16;4788002;29;20069;-68
2024/02/04 03:21:41;;;;;;;2.58;1.85;;;;;;;1.26;72.50;96587.06;4772894;29;20046;-69
2024/02/04 03:24:07;;;;;;;3.78;2.13;;;;;;;1.34;72.30;96595.41;4773241;29;20057;-66
2024/02/04 03:26:33;;;;;;;4.13;2.10;;;;;;;1.35;72.25;96597.09;4785954;29;20039;-67
2024/02/04 03:28:59;;;;;;;3.72;2.20;;;;;;;1.34;72.76;96585.16;4771564;29;20059;-68
2024/02/04 03:31:25;;;;;;;2.85;1.90;;;;;;;1.18;72.51;96555.66;4778518;29;20080;-68
2024/02/04 03:33:52;;;;;;;4.05;2.20;;;;;;;1.23;71.99;96564.06;4765844;29;20137;-68
2024/02/04 03:36:21;;;;;;;3.00;1.70;;;;;;;1.41;72.25;96580.75;4771943;29;20423;-68
2024/02/04 03:38:49;;;;;;;4.55;2.50;;;;;;;1.41;72.81;96585.00;4788248;29;20141;-67
2024/02/04 03:41:14;;;;;;;3.97;1.90;;;;;;;1.38;73.24;96575.69;4798607;29;20042;-67
2024/02/04 03:43:41;;;;;;;2.90;1.90;;;;;;;1.42;72.96;96579.88;4772297;29;20047;-66
2024/02/04 03:46:07;;;;;;;3.88;1.60;;;;;;;1.41;72.26;96583.31;4772290;29;20404;-66
2024/02/04 03:48:34;;;;;;;3.78;1.90;;;;;;;1.37;73.12;96570.59;4784297;29;20129;-66
2024/02/04 03:51:00;;;;;;;4.55;2.00;;;;;;;1.48;73.26;96572.00;4788562;29;20115;-67
2024/02/04 03:53:25;;;;;;;5.07;2.40;;;;;;;1.42;72.88;96564.50;4800677;29;20050;-69
2024/02/04 03:55:51;;;;;;;5.38;2.30;;;;;;;1.52;73.20;96579.63;4803117;29;20119;-67
2024/02/04 03:58:20;;;;;;;6.63;3.35;;;;;;;1.54;73.14;96568.47;4793565;29;20438;-66
2024/02/04 04:00:46;;;;;;;7.20;2.88;;;;;;;1.56;72.90;96571.00;4782566;29;20051;-70
2024/02/04 04:03:12;;;;;;;8.23;3.45;;;;;;;1.53;73.49;96561.69;4798269;29;20395;-68
2024/02/04 04:05:38;;;;;;;8.32;4.18;;;;;;;1.50;73.41;96552.31;4772204;29;20054;-67
2024/02/04 04:08:04;;;;;;;7.20;2.90;;;;;;;1.60;73.18;96557.22;4772672;29;20387;-68
2024/02/04 04:10:30;;;;;;;5.95;3.20;;;;;;;1.62;73.29;96561.44;4783495;29;20105;-68
2024/02/04 04:12:56;;;;;;;4.72;2.55;;;;;;;1.42;73.30;96530.31;4786558;29;20065;-66
2024/02/04 04:15:22;;;;;;;5.20;2.30;;;;;;;1.56;73.64;96546.19;4772821;29;20043;-68
2024/02/04 04:17:48;;;;;;;3.25;1.55;;;;;;;1.47;73.42;96529.31;4786741;29;20054;-68
2024/02/04 04:20:15;;;;;;;3.42;1.63;;;;;;;1.67;73.95;96560.47;4800442;29;20575;-68
2024/02/04 04:22:41;;;;;;;2.95;1.90;;;;;;;1.68;73.27;96557.03;4786002;29;20049;-68
2024/02/04 04:25:08;;;;;;;5.38;2.20;;;;;;;1.67;73.88;96553.63;4798927;29;20054;-69
2024/02/04 04:27:34;;;;;;;5.60;2.63;;;;;;;1.57;73.64;96535.06;4769402;29;20043;-67
2024/02/04 04:30:00;;;;;;;10.00;3.40;;;;;;;1.63;73.83;96528.97;4755638;29;20078;-69
2024/02/04 04:32:26;;;;;;;11.30;4.68;;;;;;;1.73;73.96;96538.09;4771587;29;20101;-69
2024/02/04 04:34:55;;;;;;;9.38;4.22;;;;;;;1.77;74.48;96542.25;4800333;29;20062;-69
2024/02/04 04:37:21;;;;;;;12.00;5.20;;;;;;;1.78;73.87;96541.38;4787455;29;20068;-70
2024/02/04 04:39:47;;;;;;;6.10;3.20;;;;;;;1.71;74.04;96529.59;4757012;29;20463;-70
2024/02/04 04:42:12;;;;;;;6.90;2.70;;;;;;;1.70;73.89;96538.16;4800278;29;20042;-67
2024/02/04 04:44:39;;;;;;;9.52;3.45;;;;;;;1.75;74.62;96536.31;4772413;29;21366;-68
2024/02/04 04:47:05;;;;;;;6.10;3.10;;;;;;;1.65;74.38;96517.78;4758212;29;20069;-69
2024/02/04 04:49:31;;;;;;;3.75;2.28;;;;;;;1.66;73.99;96523.72;4786585;29;20137;-69
2024/02/04 04:51:57;;;;;;;3.35;1.90;;;;;;;1.63;74.65;96511.03;4801635;29;20043;-70
2024/02/04 04:54:23;;;;;;;5.38;1.90;;;;;;;1.72;74.49;96521.03;4768261;29;20050;-69
2024/02/04 04:56:49;;;;;;;2.88;1.55;;;;;;;1.80;74.51;96525.94;4774546;29;20047;-68
2024/02/04 04:59:15;;;;;;;9.20;1.50;;;;;;;1.63;74.58;96504.16;4785268;29;20046;-69
2024/02/04 05:01:46;;;;;;;1.85;1.20;;;;;;;1.73;74.61;96519.31;4784851;29;20066;-69
2024/02/04 05:04:15;;;;;;;3.30;1.55;;;;;;;1.71;74.45;96513.38;4780399;29;20047;-69
2024/02/04 05:06:44;;;;;;;4.38;1.23;;;;;;;1.73;74.50;96511.63;4785651;29;20106;-70
2024/02/04 05:09:11;;;;;;;3.00;1.38;;;;;;;1.76;74.92;96507.25;4781886;29;20142;-70
2024/02/04 05:11:37;;;;;;;2.70;1.30;;;;;;;1.85;74.56;96521.53;4785801;29;20047;-70
2024/02/04 05:14:03;;;;;;;3.92;1.80;;;;;;;1.78;74.50;96515.75;4792911;29;20427;-70
2024/02/04 05:16:30;;;;;;;3.50;1.50;;;;;;;1.72;74.92;96492.81;4797619;29;20058;-67
2024/02/04 05:18:56;;;;;;;2.38;1.40;;;;;;;1.72;74.97;96497.13;4786371;29;20521;-70
2024/02/04 05:21:22;;;;;;;4.40;1.63;;;;;;;1.79;74.66;96507.16;4784778;29;20074;-70
2024/02/04 05:23:48;;;;;;;4.60;1.63;;;;;;;1.92;74.87;96512.81;4784315;29;20511;-68
2024/02/04 05:26:17;;;;;;;6.97;2.70;;;;;;;1.97;74.78;96507.56;4773547;29;20053;-69
2024/02/04 05:28:43;;;;;;;5.10;2.38;;;;;;;1.94;74.57;96493.09;4800520;29;20050;-69
2024/02/04 05:31:09;;;;;;;3.80;2.05;;;;;;;2.04;74.67;96503.94;4770176;29;20059;-69
2024/02/04 05:33:35;;;;;;;7.00;2.75;;;;;;;1.93;74.80;96483.72;4783650;29;20556;-69
2024/02/04 05:36:01;;;;;;;5.95;2.42;;;;;;;1.92;74.89;96473.50;4781290;29;20142;-69
2024/02/04 05:38:27;;;;;;;3.97;1.55;;;;;;;1.87;74.83;96449.72;4797945;29;20040;-68
2024/02/04 05:40:53;;;;;;;3.10;1.45;;;;;;;2.08;74.95;96484.19;4786248;29;20101;-70
2024/02/04 05:43:19;;;;;;;3.13;1.70;;;;;;;1.94;74.96;96476.84;4792986;29;20532;-70
2024/02/04 05:45:45;;;;;;;8.95;4.38;;;;;;;1.90;74.52;96457.31;4785357;29;20477;-67
2024/02/04 05:48:11;;;;;;;5.50;3.33;;;;;;;1.95;75.08;96458.03;4785906;29;20070;-69
2024/02/04 05:50:37;;;;;;;7.70;3.60;;;;;;;2.10;74.73;96478.09;4769873;29;20087;-69
2024/02/04 05:53:03;;;;;;;7.50;3.85;;;;;;;2.10;75.14;96483.25;4770202;29;20049;-67
2024/02/04 05:55:29;;;;;;;9.50;3.80;;;;;;;2.03;75.06;96468.94;4798861;29;20055;-69
2024/02/04 05:57:55;;;;;;;6.90;3.22;;;;;;;1.92;74.82;96440.16;4768059;29;20039;-69
2024/02/04 06:00:21;;;;;;;4.97;2.40;;;;;;;2.02;75.08;96453.56;4784226;29;20058;-68
2024/02/04 06:02:47;;;;;;;5.32;2.92;;;;;;;2.16;75.10;96486.53;4796786;29;20039;-67
2024/02/04 06:05:14;;;;;;;6.32;3.13;;;;;;;2.16;75.02;96486.53;4797970;29;20070;-70
2024/02/04 06:07:42;;;;;;;5.35;2.55;;;;;;;2.20;74.96;96494.13;4798041;29;20391;-71
2024/02/04 06:10:11;;;;;;;4.30;2.40;;;;;;;2.09;75.42;96460.22;4786591;29;20050;-70
2024/02/04 06:12:40;;;;;;;3.05;2.28;;;;;;;2.33;75.60;96489.44;4777209;29;20050;-69
2024/02/04 06:15:12;;;;;;;3.30;1.60;;;;;;;2.42;75.06;96493.50;4785584;29;20095;-70
2024/02/04 06:17:38;;;;;;;2.10;1.30;;;;;;;2.36;74.94;96473.13;4772244;29;20046;-70
2024/02/04 06:20:05;;;;;;;2.13;1.08;;;;;;;2.52;75.08;96497.47;4800956;29;20114;-70
2024/02/04 06:22:31;;;;;;;3.13;1.15;;;;;;;2.60;75.22;96504.94;4784754;29;20119;-71
2024/02/04 06:24:57;;;;;;;1.13;0.82;;;;;;;2.52;75.04;96476.09;4798407;29;20079;-70
2024/02/04 06:27:23;;;;;;;2.00;0.95;;;;;;;2.72;75.03;96496.03;4796473;29;20134;-67
2024/02/04 06:29:49;;;;;;;1.55;0.90;;;;;;;2.70;74.92;96487.53;4797531;29;20128;-69
2024/02/04 06:32:20;;;;;;;1.58;0.95;;;;;;;2.63;74.68;96486.88;4781257;29;20050;-67
2024/02/04 06:34:46;;;;;;;1.15;0.80;;;;;;;2.85;75.25;96522.19;4797533;29;20408;-70
2024/02/04 06:37:12;;;;;;;1.77;1.10;;;;;;;2.84;75.09;96505.09;4799326;29;20341;-71
2024/02/04 06:39:38;;;;;;;1.33;1.23;;;;;;;3.04;75.02;96537.03;4783586;29;20646;-71
2024/02/04 06:42:04;;;;;;;1.88;1.13;;;;;;;3.10;74.78;96527.38;4791740;29;20042;-73
2024/02/04 06:44:33;;;;;;;2.67;1.13;;;;;;;3.09;74.60;96524.88;4786112;29;20535;-71
2024/02/04 06:46:59;;;;;;;1.52;1.05;;;;;;;3.10;74.65;96517.13;4788573;29;20071;-68
2024/02/04 06:49:26;;;;;;;1.20;0.80;;;;;;;3.17;74.82;96528.88;4789281;29;20192;-66
2024/02/04 06:51:56;;;;;;;3.22;0.80;;;;;;;3.22;74.96;96531.31;4785448;29;20043;-71
2024/02/04 06:54:23;;;;;;;2.33;0.80;;;;;;;3.28;74.32;96528.53;4804800;29;20051;-71
2024/02/04 06:56:51;;;;;;;1.38;0.75;;;;;;;3.27;74.24;96518.34;4804293;29;20178;-72
2024/02/04 06:59:17;;;;;;;3.15;1.15;;;;;;;3.44;74.18;96539.19;4789553;29;20046;-69
2024/02/04 07:01:44;;;;;;;0.90;0.68;;;;;;;3.46;73.77;96551.97;4788081;29;20039;-70
2024/02/04 07:04:10;;;;;;;1.90;0.90;;;;;;;3.44;74.17;96546.03;4773990;29;20061;-69
2024/02/04 07:06:35;;;;;;;0.77;0.70;;;;;;;3.36;74.36;96542.91;4801105;29;20517;-69
2024/02/04 07:09:02;;;;;;;1.30;0.80;;;;;;;3.36;73.69;96551.44;4801390;29;20058;-70
2024/02/04 07:11:28;;;;;;;1.30;0.60;;;;;;;3.30;73.87;96544.75;4781261;29;20079;-69
2024/02/04 07:13:58;;;;;;;1.30;0.70;;;;;;;3.19;73.67;96538.28;4768727;29;20074;-69
2024/02/04 07:16:25;;;;;;;1.48;0.63;;;;;;;3.37;73.52;96571.09;4782651;29;20663;-66
2024/02/04 07:18:51;;;;;;;0.63;0.50;;;;;;;3.52;74.14;96574.94;4774128;29;20063;-69
2024/02/04 07:21:17;;;;;;;0.63;0.60;;;;;;;3.56;74.54;96571.38;4788037;29;20047;-67
2024/02/04 07:23:43;;;;;;;0.70;0.60;;;;;;;3.57;73.71;96570.47;4799154;29;20061;-64
2024/02/04 07:26:09;;;;;;;0.85;0.50;;;;;;;3.57;72.91;96583.34;4802171;29;20050;-67
2024/02/04 07:28:36;;;;;;;1.67;0.60;;;;;;;3.63;74.29;96591.75;4802000;29;20134;-67
2024/02/04 07:31:02;;;;;;;1.63;0.88;;;;;;;3.63;73.94;96586.59;4801251;29;20051;-70
2024/02/04 07:33:29;;;;;;;2.80;0.90;;;;;;;3.65;73.66;96580.50;4802353;29;20050;-72
2024/02/04 07:35:55;;;;;;;1.38;0.65;;;;;;;3.76;73.10;96593.84;4795721;29;20049;-69
2024/02/04 07:38:21;;;;;;;1.23;0.77;;;;;;;3.73;73.49;96599.13;4790837;29;20427;-71
2024/02/04 07:40:47;;;;;;;0.57;0.57;;;;;;;3.53;73.29;96580.94;4800703;29;20051;-70
2024/02/04 07:43:13;;;;;;;1.67;0.65;;;;;;;3.72;73.05;96597.44;4786250;29;20042;-69
2024/02/04 07:45:39;;;;;;;0.65;0.60;;;;;;;3.70;73.15;96614.66;4777315;29;20140;-68
2024/02/04 07:48:05;;;;;;;1.10;0.70;;;;;;;3.49;73.04;96587.06;4786529;29;20170;-68
2024/02/04 07:50:31;;;;;;;0.75;0.63;;;;;;;3.76;73.69;96627.28;4787901;29;20054;-66
2024/02/04 07:52:57;;;;;;;1.58;0.98;;;;;;;3.73;73.55;96608.56;4772163;29;20124;-68
2024/02/04 07:55:23;;;;;;;1.13;0.80;;;;;;;3.89;73.58;96630.31;4798657;29;20054;-67
2024/02/04 07:57:49;;;;;;;1.63;0.80;;;;;;;3.81;73.00;96609.16;4800330;29;20051;-69
2024/02/04 08:00:15;;;;;;;0.70;0.60;;;;;;;3.88;72.61;96636.34;4800382;29;20102;-69
2024/02/04 08:02:44;;;;;;;1.17;0.50;;;;;;;3.88;72.53;96644.06;4786068;29;20046;-67
2024/02/04 08:05:10;;;;;;;1.30;1.05;;;;;;;3.94;73.21;96657.63;4757150;29;20126;-66
2024/02/04 08:07:36;;;;;;;1.38;0.60;;;;;;;3.98;72.97;96651.50;4793743;29;20145;-70
2024/02/04 08:10:02;;;;;;;1.27;0.88;;;;;;;4.06;72.89;96657.25;4791756;29;20043;-64
2024/02/04 08:12:29;;;;;;;0.50;0.50;;;;;;;4.07;72.85;96659.75;4785269;29;20057;-67
2024/02/04 08:14:55;;;;;;;1.48;0.60;;;;;;;4.09;73.14;96659.69;4801449;29;20043;-69
2024/02/04 08:17:22;;;;;;;1.02;0.65;;;;;;;4.20;73.24;96670.47;4783035;29;20111;-68
2024/02/04 08:19:48;;;;;;;0.98;0.70;;;;;;;4.26;73.21;96660.88;4786323;29;20574;-67
2024/02/04 08:22:14;;;;;;;1.58;0.60;;;;;;;4.39;72.85;96676.75;4798398;29;20126;-69
2024/02/04 08:24:40;;;;;;;2.28;0.60;;;;;;;4.03;72.22;96650.44;4798930;29;20077;-67
2024/02/04 08:27:06;;;;;;;1.17;0.90;;;;;;;4.24;71.83;96690.97;4801781;29;20077;-68
2024/02/04 08:29:32;;;;;;;4.47;0.70;;;;;;;4.09;72.19;96679.44;4800306;29;20506;-68
2024/02/04 08:31:57;;;;;;;1.27;0.60;;;;;;;4.13;72.21;96699.03;4798802;29;20051;-68
2024/02/04 08:34:26;;;;;;;2.33;0.73;;;;;;;4.02;71.94;96695.06;4785381;29;20082;-66
2024/02/04 08:36:52;;;;;;;0.50;0.50;;;;;;;3.91;72.14;96692.84;4799480;29;20043;-67
2024/02/04 08:39:18;;;;;;;1.33;0.80;;;;;;;3.91;71.05;96705.72;4799003;29;20077;-66
2024/02/04 08:41:44;;;;;;;0.75;0.60;;;;;;;3.70;71.22;96681.50;4786269;29;20498;-66
2024/02/04 08:44:10;;;;;;;1.20;0.63;;;;;;;3.91;71.51;96716.00;4785323;29;20058;-66
2024/02/04 08:46:36;;;;;;;2.33;0.90;;;;;;;3.88;71.56;96720.41;4770940;29;20540;-66
2024/02/04 08:49:02;;;;;;;1.80;0.80;;;;;;;3.84;71.71;96722.25;4785439;29;20054;-65
2024/02/04 08:51:28;;;;;;;1.17;0.70;;;;;;;3.86;71.27;96733.31;4783820;29;20130;-65
2024/02/04 08:53:54;;;;;;;3.92;0.98;;;;;;;3.92;72.16;96724.56;4782200;29;20462;-66
2024/02/04 08:56:20;;;;;;;1.67;1.00;;;;;;;4.00;71.38;96735.44;4799761;29;21056;-65
2024/02/04 08:58:46;;;;;;;0.98;0.70;;;;;;;3.90;72.00;96737.47;4797182;29;20051;-68
2024/02/04 09:01:11;;;;;;;1.90;1.08;;;;;;;3.98;71.18;96751.84;4798132;29;20111;-67
2024/02/04 09:03:37;;;;;;;2.70;1.10;;;;;;;3.83;70.77;96730.00;4801186;29;20045;-67
2024/02/04 09:06:05;;;;;;;5.07;1.85;;;;;;;3.76;71.15;96734.50;4770115;29;20042;-65
2024/02/04 09:08:31;;;;;;;3.08;1.00;;;;;;;3.88;71.14;96748.72;4781665;29;20049;-67
2024/02/04 09:10:57;;;;;;;2.38;1.17;;;;;;;3.98;71.03;96755.22;4782070;29;20075;-67
2024/02/04 09:13:23;;;;;;;3.17;1.08;;;;;;;4.01;70.84;96762.88;4784671;29;21272;-68
2024/02/04 09:15:50;;;;;;;3.63;1.10;;;;;;;3.84;70.92;96740.25;4768356;29;20046;-68
2024/02/04 09:18:16;;;;;;;4.65;1.58;;;;;;;3.86;70.47;96748.72;4766972;29;20057;-67
2024/02/04 09:20:42;;;;;;;2.70;1.13;;;;;;;3.98;70.93;96775.81;4783380;29;20047;-69
2024/02/04 09:23:08;;;;;;;2.88;1.00;;;;;;;3.75;70.50;96731.06;4799605;29;20043;-65
2024/02/04 09:25:34;;;;;;;2.88;1.10;;;;;;;3.88;70.55;96739.25;4785028;29;20499;-68
2024/02/04 09:28:00;;;;;;;3.95;1.30;;;;;;;3.87;70.40;96768.44;4799052;29;20106;-68
2024/02/04 09:30:26;;;;;;;2.15;0.93;;;;;;;3.89;71.06;96755.53;4785773;29;20046;-68
2024/02/04 09:32:52;;;;;;;2.75;1.20;;;;;;;3.83;70.40;96735.13;4799580;29;20047;-70
2024/02/04 09:35:18;;;;;;;2.70;1.00;;;;;;;3.96;70.51;96745.91;4767951;29;20054;-68
2024/02/04 09:37:44;;;;;;;3.47;1.00;;;;;;;3.98;69.51;96756.97;4797557;29;20043;-68
2024/02/04 09:40:11;;;;;;;3.22;1.20;;;;;;;3.93;69.62;96752.00;4797624;29;20054;-67
2024/02/04 09:42:38;;;;;;;3.28;1.80;;;;;;;4.08;69.41;96758.41;4769123;29;20058;-68
2024/02/04 09:45:04;;;;;;;3.95;1.48;;;;;;;4.11;69.51;96772.88;4796923;29;20107;-66
2024/02/04 09:47:34;;;;;;;3.67;1.42;;;;;;;4.00;69.18;96753.47;4798540;29;20070;-66
2024/02/04 09:50:00;;;;;;;3.72;1.20;;;;;;;4.03;69.43;96757.69;4797083;29;20047;-68
2024/02/04 09:52:33;;;;;;;2.80;1.30;;;;;;;4.12;69.34;96772.81;4797844;29;20123;-66
2024/02/04 09:55:03;;;;;;;4.82;1.25;;;;;;;4.08;69.64;96776.41;4768883;29;20414;-67
2024/02/04 09:57:31;;;;;;;6.13;1.73;;;;;;;3.90;69.03;96752.91;4783789;29;20043;-67
2024/02/04 09:59:56;;;;;;;4.50;1.45;;;;;;;4.02;69.14;96754.25;4783152;29;20050;-67
2024/02/04 10:02:23;;;;;;;4.53;1.10;;;;;;;4.00;68.31;96758.59;4794121;29;20072;-68
2024/02/04 10:04:49;;;;;;;2.83;1.13;;;;;;;4.27;68.76;96775.81;4798722;29;20049;-68
2024/02/04 10:07:17;;;;;;;5.53;2.03;;;;;;;4.44;68.31;96776.13;4784232;29;20100;-67
2024/02/04 10:09:44;;;;;;;4.22;1.90;;;;;;;4.41;67.89;96773.63;4797507;29;20383;-67
2024/02/04 10:12:10;;;;;;;4.68;1.55;;;;;;;4.60;68.25;96780.75;4796857;29;20086;-66
2024/02/04 10:14:36;;;;;;;4.90;1.63;;;;;;;4.52;67.40;96774.13;4784932;29;20046;-67
2024/02/04 10:17:03;;;;;;;5.07;1.90;;;;;;;4.46;67.19;96778.63;4783156;29;20038;-66
2024/02/04 10:19:29;;;;;;;4.90;1.40;;;;;;;4.34;66.95;96805.59;4782123;29;20051;-66
2024/02/04 10:22:03;;;;;;;5.63;1.55;;;;;;;4.06;67.26;96775.59;4784113;29;20035;-66
2024/02/04 10:24:30;;;;;;;5.25;1.20;;;;;;;4.04;66.16;96783.34;4769916;29;20053;-68
2024/02/04 10:26:56;;;;;;;4.55;1.30;;;;;;;4.18;66.43;96800.13;4795378;29;20476;-68
2024/02/04 10:29:26;;;;;;;2.90;1.40;;;;;;;4.18;66.35;96793.22;4769783;29;20139;-67
2024/02/04 10:31:57;;;;;;;5.40;1.75;;;;;;;4.33;66.48;96804.78;4777234;29;20054;-66
2024/02/04 10:34:27;;;;;;;3.53;1.50;;;;;;;4.37;65.99;96802.94;4808196;29;20259;-68
2024/02/04 10:36:53;;;;;;;5.50;1.30;;;;;;;4.29;65.65;96784.34;4776814;29;20554;-67
2024/02/04 10:39:19;;;;;;;4.53;1.83;;;;;;;4.37;65.44;96808.09;4775203;29;20207;-67
2024/02/04 10:41:53;;;;;;;5.13;1.40;;;;;;;4.43;65.04;96789.88;4792332;29;20770;-67
2024/02/04 10:44:24;;;;;;;5.30;1.40;;;;;;;4.64;65.88;96813.25;4790799;29;20046;-67
2024/02/04 10:46:54;;;;;;;4.65;1.30;;;;;;;4.71;64.88;96812.16;4781321;29;20118;-66
2024/02/04 10:49:21;;;;;;;3.67;1.50;;;;;;;4.83;64.18;96814.31;4804719;29;20047;-68
2024/02/04 10:51:47;;;;;;;8.02;1.58;;;;;;;4.79;64.20;96825.63;4806339;29;20046;-66
2024/02/04 10:54:21;;;;;;;4.18;1.20;;;;;;;4.72;64.03;96816.44;4776585;29;20053;-67
2024/02/04 10:56:55;;;;;;;9.00;1.42;;;;;;;4.75;63.62;96806.00;4788827;29;20042;-68
2024/02/04 10:59:22;;;;;;;5.05;1.58;;;;;;;4.72;63.59;96823.31;4805833;29;20129;-70
2024/02/04 11:01:48;;;;;;;2.88;1.20;;;;;;;4.73;63.65;96843.03;4806662;29;20063;-63
2024/02/04 11:04:16;;;;;;;4.43;1.40;;;;;;;4.57;63.18;96827.22;4779628;29;20050;-69
2024/02/04 11:06:43;;;;;;;5.13;1.50;;;;;;;4.67;62.99;96844.06;4778984;29;20034;-64
2024/02/04 11:09:10;;;;;;;3.95;1.35;;;;;;;4.48;62.64;96836.06;4794413;29;20051;-67
2024/02/04 11:11:38;;;;;;;7.45;1.80;;;;;;;4.48;62.52;96829.22;4788638;29;20050;-68
2024/02/04 11:14:09;;;;;;;6.68;1.45;;;;;;;4.63;62.45;96852.78;4778172;29;20055;-64
2024/02/04 11:16:45;;;;;;;7.13;1.52;;;;;;;4.81;62.43;96853.94;4798372;29;20043;-67
2024/02/04 11:19:32;;;;;;;6.18;1.30;;;;;;;4.89;62.08;96863.97;4801038;29;20139;-67
2024/02/04 11:22:04;;;;;;;4.93;1.50;;;;;;;4.88;62.13;96868.28;4792306;29;20054;-65
2024/02/04 11:24:52;;;;;;;;;;;;;;;4.80;61.51;96860.81;4790350;29;20491;-68
2024/02/04 11:27:19;;;;;;;5.60;1.30;;;;;;;4.86;61.86;96848.63;4787702;29;20011;-68
2024/02/04 11:29:45;;;;;;;5.75;1.50;;;;;;;4.96;62.03;96866.31;4792911;29;20414;-68
2024/02/04 11:32:12;;;;;;;3.97;1.25;;;;;;;4.90;61.63;96845.06;4789366;29;20192;-67
2024/02/04 11:34:38;;;;;;;5.88;1.67;;;;;;;5.08;61.45;96865.06;4777425;29;20051;-68
2024/02/04 11:37:19;;;;;;;5.95;1.60;;;;;;;5.07;61.12;96865.13;4778599;29;20189;-68
2024/02/04 11:39:50;;;;;;;6.75;1.38;;;;;;;4.85;60.74;96846.94;4791185;29;20046;-69
2024/02/04 11:42:17;;;;;;;6.57;1.30;;;;;;;5.03;61.18;96879.00;4804245;29;20043;-68